SVA1039 OERK-OEJN
Flight info
| Callsign | SVA1039 |
|---|---|
| Flight time | N/A |
| Altitude | 40000 |
| Route | DURMA G782 VEMEM |
| Aircraft | B772/H-SDE2E3FGHIJ5LORVWXY/LB1D1 |
Departure
| Time | 2026-05-01 14:50 |
|---|---|
| Airport | King Khalid International Airport (OERK) |
Arrival
| Time | N/A |
|---|---|
| Airport | King Abdulaziz International Airport (OEJN) |
| Time | Latitude | Longitude | Altitude | Speed | Heading |
|---|---|---|---|---|---|
| 2026-05-01 14:08 | 24.94444 | 46.71642 | 2037 ft | 0 kts | 240° |
| 2026-05-01 14:37 | 24.94456 | 46.71666 | 2039 ft | 4 kts | 240° |
| 2026-05-01 14:37 | 24.94470 | 46.71692 | 2046 ft | 4 kts | 240° |
| 2026-05-01 14:38 | 24.94482 | 46.71714 | 2046 ft | 4 kts | 244° |
| 2026-05-01 14:38 | 24.94486 | 46.71738 | 2044 ft | 4 kts | 306° |
| 2026-05-01 14:38 | 24.94466 | 46.71754 | 2044 ft | 4 kts | 333° |
| 2026-05-01 14:38 | 24.94461 | 46.71756 | 2043 ft | 0 kts | 331° |
| 2026-05-01 14:40 | 24.94468 | 46.71753 | 2037 ft | 5 kts | 331° |
| 2026-05-01 14:40 | 24.94512 | 46.71726 | 2044 ft | 8 kts | 331° |
| 2026-05-01 14:41 | 24.94543 | 46.71707 | 2038 ft | 8 kts | 331° |
| 2026-05-01 14:41 | 24.94589 | 46.71678 | 2044 ft | 8 kts | 330° |
| 2026-05-01 14:41 | 24.94638 | 46.71646 | 2043 ft | 9 kts | 329° |
| 2026-05-01 14:41 | 24.94692 | 46.71611 | 2043 ft | 9 kts | 329° |
| 2026-05-01 14:42 | 24.94754 | 46.71590 | 2041 ft | 10 kts | 10° |
| 2026-05-01 14:42 | 24.94797 | 46.71642 | 2044 ft | 10 kts | 62° |
| 2026-05-01 14:42 | 24.94855 | 46.71649 | 2044 ft | 10 kts | 328° |
| 2026-05-01 14:42 | 24.94934 | 46.71598 | 2044 ft | 18 kts | 330° |
| 2026-05-01 14:43 | 24.95067 | 46.71515 | 2043 ft | 21 kts | 330° |
| 2026-05-01 14:43 | 24.95192 | 46.71436 | 2045 ft | 21 kts | 330° |
| 2026-05-01 14:43 | 24.95317 | 46.71356 | 2045 ft | 21 kts | 330° |
| 2026-05-01 14:43 | 24.95442 | 46.71277 | 2045 ft | 21 kts | 330° |
| 2026-05-01 14:44 | 24.95568 | 46.71198 | 2040 ft | 21 kts | 330° |
| 2026-05-01 14:44 | 24.95817 | 46.71040 | 2043 ft | 21 kts | 330° |
| 2026-05-01 14:44 | 24.95942 | 46.70961 | 2043 ft | 21 kts | 330° |
| 2026-05-01 14:45 | 24.96067 | 46.70882 | 2044 ft | 21 kts | 330° |
| 2026-05-01 14:45 | 24.96318 | 46.70723 | 2043 ft | 21 kts | 330° |
| 2026-05-01 14:45 | 24.96443 | 46.70644 | 2044 ft | 21 kts | 330° |
| 2026-05-01 14:46 | 24.96567 | 46.70565 | 2042 ft | 21 kts | 330° |
| 2026-05-01 14:46 | 24.96817 | 46.70408 | 2041 ft | 21 kts | 330° |
| 2026-05-01 14:46 | 24.96943 | 46.70329 | 2041 ft | 21 kts | 330° |
| 2026-05-01 14:47 | 24.97068 | 46.70249 | 2043 ft | 21 kts | 330° |
| 2026-05-01 14:47 | 24.97191 | 46.70170 | 2037 ft | 21 kts | 330° |
| 2026-05-01 14:47 | 24.97314 | 46.70093 | 2040 ft | 20 kts | 330° |
| 2026-05-01 14:48 | 24.97516 | 46.69972 | 2041 ft | 8 kts | 353° |
| 2026-05-01 14:48 | 24.97564 | 46.70010 | 2041 ft | 11 kts | 55° |
| 2026-05-01 14:48 | 24.97616 | 46.70199 | 2034 ft | 14 kts | 104° |
| 2026-05-01 14:49 | 24.97299 | 46.70447 | 2041 ft | 79 kts | 150° |
| 2026-05-01 14:49 | 24.95655 | 46.71495 | 2360 ft | 167 kts | 152° |
| 2026-05-01 14:50 | 24.93975 | 46.72519 | 3670 ft | 166 kts | 148° |
| 2026-05-01 14:50 | 24.91048 | 46.73901 | 4133 ft | 228 kts | 176° |
| 2026-05-01 14:51 | 24.89398 | 46.73539 | 4333 ft | 255 kts | 198° |
| 2026-05-01 14:51 | 24.86251 | 46.71532 | 5187 ft | 279 kts | 229° |
| 2026-05-01 14:52 | 24.85829 | 46.67374 | 6690 ft | 291 kts | 285° |
| 2026-05-01 14:52 | 24.86421 | 46.65300 | 7401 ft | 285 kts | 278° |
| 2026-05-01 14:52 | 24.87388 | 46.61090 | 8748 ft | 287 kts | 295° |
| 2026-05-01 14:53 | 24.88490 | 46.59260 | 9649 ft | 286 kts | 305° |
| 2026-05-01 14:53 | 24.89777 | 46.57606 | 10186 ft | 283 kts | 298° |
| 2026-05-01 14:53 | 24.90393 | 46.55570 | 10370 ft | 294 kts | 268° |
| 2026-05-01 14:53 | 24.89892 | 46.53335 | 10549 ft | 314 kts | 240° |
| 2026-05-01 14:54 | 24.88659 | 46.51275 | 10687 ft | 333 kts | 236° |
| 2026-05-01 14:54 | 24.87357 | 46.49075 | 11130 ft | 349 kts | 237° |
| 2026-05-01 14:54 | 24.86036 | 46.46787 | 11908 ft | 356 kts | 237° |
| 2026-05-01 14:54 | 24.84708 | 46.44484 | 12990 ft | 356 kts | 238° |
| 2026-05-01 14:55 | 24.83377 | 46.42179 | 13989 ft | 358 kts | 238° |
| 2026-05-01 14:55 | 24.82028 | 46.39848 | 14839 ft | 365 kts | 238° |
| 2026-05-01 14:55 | 24.80670 | 46.37503 | 15705 ft | 370 kts | 238° |
| 2026-05-01 14:55 | 24.79279 | 46.35105 | 16571 ft | 374 kts | 238° |
| 2026-05-01 14:56 | 24.77864 | 46.32668 | 17158 ft | 379 kts | 238° |
| 2026-05-01 14:56 | 24.76426 | 46.30194 | 18036 ft | 384 kts | 238° |
| 2026-05-01 14:56 | 24.74978 | 46.27701 | 18945 ft | 387 kts | 238° |
| 2026-05-01 14:56 | 24.73539 | 46.25227 | 19791 ft | 391 kts | 238° |
| 2026-05-01 14:57 | 24.72060 | 46.22686 | 20600 ft | 396 kts | 238° |
| 2026-05-01 14:57 | 24.69051 | 46.17515 | 22231 ft | 406 kts | 239° |
| 2026-05-01 14:57 | 24.67516 | 46.14881 | 22992 ft | 411 kts | 239° |
| 2026-05-01 14:58 | 24.65961 | 46.12212 | 23659 ft | 416 kts | 239° |
| 2026-05-01 14:58 | 24.64391 | 46.09518 | 24303 ft | 419 kts | 239° |
| 2026-05-01 14:58 | 24.62813 | 46.06815 | 25003 ft | 420 kts | 239° |
| 2026-05-01 14:58 | 24.61252 | 46.04143 | 25695 ft | 420 kts | 239° |
| 2026-05-01 14:59 | 24.59671 | 46.01436 | 26347 ft | 422 kts | 239° |
| 2026-05-01 14:59 | 24.58071 | 45.98698 | 26913 ft | 425 kts | 239° |
| 2026-05-01 14:59 | 24.56466 | 45.95954 | 27555 ft | 426 kts | 239° |
| 2026-05-01 14:59 | 24.54884 | 45.93252 | 28225 ft | 425 kts | 239° |
| 2026-05-01 15:00 | 24.51667 | 45.87757 | 29200 ft | 430 kts | 239° |
| 2026-05-01 15:00 | 24.50036 | 45.84973 | 29612 ft | 433 kts | 239° |
| 2026-05-01 15:00 | 24.48399 | 45.82181 | 30028 ft | 435 kts | 239° |
| 2026-05-01 15:01 | 24.46753 | 45.79376 | 30371 ft | 437 kts | 239° |
| 2026-05-01 15:01 | 24.45132 | 45.76597 | 30679 ft | 437 kts | 240° |
| 2026-05-01 15:01 | 24.43652 | 45.73671 | 30928 ft | 439 kts | 244° |
| 2026-05-01 15:01 | 24.42309 | 45.70650 | 31191 ft | 440 kts | 246° |
| 2026-05-01 15:02 | 24.41014 | 45.67603 | 31540 ft | 439 kts | 246° |
| 2026-05-01 15:02 | 24.40162 | 45.65591 | 31838 ft | 437 kts | 246° |
| 2026-05-01 15:02 | 24.38440 | 45.61578 | 32461 ft | 432 kts | 246° |
| 2026-05-01 15:02 | 24.37143 | 45.58611 | 32904 ft | 429 kts | 245° |
| 2026-05-01 15:03 | 24.35862 | 45.55713 | 33241 ft | 428 kts | 245° |
| 2026-05-01 15:03 | 24.34553 | 45.52771 | 33562 ft | 428 kts | 245° |
| 2026-05-01 15:03 | 24.33243 | 45.49841 | 33950 ft | 426 kts | 245° |
| 2026-05-01 15:03 | 24.31937 | 45.46922 | 34275 ft | 424 kts | 245° |
| 2026-05-01 15:04 | 24.30637 | 45.44020 | 34539 ft | 424 kts | 245° |
| 2026-05-01 15:04 | 24.29353 | 45.41151 | 34775 ft | 425 kts | 245° |
| 2026-05-01 15:04 | 24.28047 | 45.38237 | 35033 ft | 425 kts | 245° |
| 2026-05-01 15:04 | 24.26744 | 45.35329 | 35314 ft | 424 kts | 245° |
| 2026-05-01 15:05 | 24.25439 | 45.32418 | 35604 ft | 424 kts | 245° |
| 2026-05-01 15:05 | 24.24152 | 45.29548 | 35876 ft | 423 kts | 245° |
| 2026-05-01 15:05 | 24.22852 | 45.26652 | 36146 ft | 423 kts | 245° |
| 2026-05-01 15:05 | 24.21550 | 45.23754 | 36425 ft | 423 kts | 244° |
| 2026-05-01 15:06 | 24.20253 | 45.20867 | 36711 ft | 422 kts | 244° |
| 2026-05-01 15:06 | 24.18951 | 45.17970 | 36970 ft | 422 kts | 244° |
| 2026-05-01 15:06 | 24.17653 | 45.15085 | 37246 ft | 423 kts | 244° |
| 2026-05-01 15:06 | 24.16366 | 45.12229 | 37526 ft | 422 kts | 244° |
| 2026-05-01 15:07 | 24.15068 | 45.09345 | 37821 ft | 422 kts | 244° |
| 2026-05-01 15:07 | 24.13770 | 45.06460 | 38113 ft | 422 kts | 244° |
| 2026-05-01 15:07 | 24.12473 | 45.03575 | 38412 ft | 421 kts | 244° |
| 2026-05-01 15:07 | 24.11179 | 45.00699 | 38677 ft | 421 kts | 244° |
| 2026-05-01 15:08 | 24.09887 | 44.97831 | 38950 ft | 420 kts | 244° |
| 2026-05-01 15:08 | 24.08595 | 44.94964 | 39221 ft | 418 kts | 244° |
| 2026-05-01 15:08 | 24.07308 | 44.92109 | 39449 ft | 418 kts | 244° |
| 2026-05-01 15:08 | 24.06019 | 44.89250 | 39683 ft | 417 kts | 244° |
| 2026-05-01 15:09 | 24.04743 | 44.86424 | 39812 ft | 419 kts | 244° |
| 2026-05-01 15:09 | 24.02153 | 44.80691 | 39907 ft | 420 kts | 244° |
| 2026-05-01 15:10 | 23.99568 | 44.74975 | 39905 ft | 416 kts | 244° |
| 2026-05-01 15:10 | 23.95719 | 44.66477 | 39911 ft | 415 kts | 244° |
| 2026-05-01 15:11 | 23.92283 | 44.57809 | 39927 ft | 417 kts | 252° |
| 2026-05-01 15:12 | 23.90871 | 44.51651 | 39916 ft | 418 kts | 256° |
| 2026-05-01 15:12 | 23.88921 | 44.42386 | 39911 ft | 419 kts | 256° |
| 2026-05-01 15:14 | 23.85605 | 44.26874 | 39904 ft | 419 kts | 256° |
| 2026-05-01 15:14 | 23.83613 | 44.17615 | 39909 ft | 418 kts | 256° |
| 2026-05-01 15:15 | 23.80945 | 44.05255 | 39910 ft | 416 kts | 256° |
| 2026-05-01 15:16 | 23.78289 | 43.92992 | 39905 ft | 416 kts | 256° |
| 2026-05-01 15:18 | 23.74913 | 43.77568 | 39926 ft | 418 kts | 256° |
| 2026-05-01 15:19 | 23.72204 | 43.65262 | 39923 ft | 418 kts | 256° |
| 2026-05-01 15:19 | 23.70165 | 43.56033 | 39925 ft | 417 kts | 256° |
| 2026-05-01 15:20 | 23.68126 | 43.46826 | 39930 ft | 417 kts | 256° |
| 2026-05-01 15:21 | 23.66759 | 43.40670 | 39940 ft | 417 kts | 256° |
| 2026-05-01 15:21 | 23.65390 | 43.34518 | 39941 ft | 417 kts | 256° |
| 2026-05-01 15:22 | 23.63332 | 43.25292 | 39942 ft | 417 kts | 256° |
| 2026-05-01 15:22 | 23.61958 | 43.19147 | 39930 ft | 416 kts | 256° |
| 2026-05-01 15:23 | 23.60591 | 43.13045 | 39947 ft | 416 kts | 256° |
| 2026-05-01 15:23 | 23.59211 | 43.06900 | 39952 ft | 417 kts | 256° |
| 2026-05-01 15:24 | 23.57827 | 43.00746 | 39961 ft | 417 kts | 256° |
| 2026-05-01 15:24 | 23.56441 | 42.94596 | 39954 ft | 417 kts | 256° |
| 2026-05-01 15:25 | 23.55060 | 42.88476 | 39953 ft | 417 kts | 256° |
| 2026-05-01 15:25 | 23.53666 | 42.82313 | 39956 ft | 417 kts | 256° |
| 2026-05-01 15:26 | 23.52282 | 42.76206 | 39950 ft | 417 kts | 256° |
| 2026-05-01 15:26 | 23.50889 | 42.70066 | 39950 ft | 417 kts | 256° |
| 2026-05-01 15:27 | 23.49497 | 42.63933 | 39950 ft | 417 kts | 256° |
| 2026-05-01 15:28 | 23.47410 | 42.54756 | 39956 ft | 416 kts | 256° |
| 2026-05-01 15:28 | 23.46014 | 42.48629 | 39952 ft | 416 kts | 256° |
| 2026-05-01 15:29 | 23.44153 | 42.40484 | 39958 ft | 416 kts | 256° |
| 2026-05-01 15:30 | 23.41356 | 42.28278 | 39948 ft | 416 kts | 256° |
| 2026-05-01 15:31 | 23.37121 | 42.09886 | 39951 ft | 418 kts | 256° |
| 2026-05-01 15:32 | 23.34285 | 41.97626 | 39957 ft | 419 kts | 256° |
| 2026-05-01 15:34 | 23.30000 | 41.79187 | 39954 ft | 420 kts | 256° |